Nearby METAR Reports

 

EGKA - Shoreham-By-Sea, United Kingdom
Distance from station: SW 9mi, 14km
Updated: Mon, 20-Nov-2017 2:50pm GMT
Drizzle, Mostly cloudy
Drizzle, Mostly cloudy
 Wind from WSW
Wind: WSW 17 mph , 28 km/h, Gust: 29 mph , 46 km/h
Temperature: 12°C
Dew Point: 11°C
Humidity: 94%
Barometer: 1014 hPa
Summary: Drizzle
Clouds: Mostly Cloudy
Visibility: 2 miles , 4 km
Cloud details: Mostly Cloudy 244 m
2017/11/20 14:50 EGKA 201450Z 25015G25KT 4000 DZ BKN008 12/11 Q1014
EGKK - London/Gatwick A, United Kingdom
Distance from station: N 14mi, 22km
Updated: Mon, 20-Nov-2017 2:50pm GMT
Mostly Cloudy
Mostly Cloudy
 Wind from SW
Wind: SW 10 mph , 17 km/h
Temperature: 12°C
Dew Point: 11°C
Humidity: 94%
Barometer: 1013 hPa
Clouds: Mostly Cloudy
Visibility: 6 miles , 10 km
Cloud details: Mostly Cloudy 366 m
2017/11/20 14:50 EGKK 201450Z 23009KT 9999 BKN012 12/11 Q1013
 
EGKB - Biggin Hill, United Kingdom
Distance from station: NNE 28mi, 44km
Updated: Mon, 20-Nov-2017 2:50pm GMT
Mostly Cloudy
Mostly Cloudy
 Wind from WSW
Wind: WSW 14 mph , 22 km/h
Temperature: 12°C
Dew Point: 11°C
Humidity: 94%
Barometer: 1013 hPa
Clouds: Mostly Cloudy
Visibility: 6 miles , 10 km
Cloud details: Mostly Cloudy 305 m
2017/11/20 14:50 EGKB 201450Z 24012KT 210V280 9999 BKN010 12/11 Q1013
EGLF - Farnborough, United Kingdom
Distance from station: NW 35mi, 56km
Updated: Mon, 20-Nov-2017 2:50pm GMT
Mostly Cloudy
Mostly Cloudy
 Wind from WSW
Wind: WSW 15 mph , 24 km/h
Temperature: 12°C
Dew Point: 11°C
Humidity: 94%
Barometer: 1013 hPa
Clouds: Mostly Cloudy
Visibility: 6 miles , 10 km
Cloud details: Mostly Cloudy 427 m
2017/11/20 14:50 EGLF 201450Z 24013KT 9999 BKN014 12/11 Q1013
 
EGMD - Lydd Airport, United Kingdom
Distance from station: E 48mi, 77km
Updated: Mon, 20-Nov-2017 2:50pm GMT
Light drizzle, Mostly cloudy
Light drizzle, Mostly cloudy
 Wind from WSW
Wind: WSW 17 mph , 28 km/h
Temperature: 12°C
Dew Point: 11°C
Humidity: 94%
Barometer: 1014 hPa
Summary: Light Drizzle
Clouds: Mostly Cloudy
Visibility: 3 miles , 5 km
Cloud details: Partly Cloudy 213 m
Mostly Cloudy 335 m
2017/11/20 14:50 EGMD 201450Z 25015KT 4500 -DZ SCT007 BKN011 12/11 Q1014
EGHI - Southampton Wx C, United Kingdom
Distance from station: W 50mi, 82km
Updated: Mon, 20-Nov-2017 2:50pm GMT
Nearby showers, Mostly cloudy
Nearby showers, Mostly cloudy
 Wind from WSW
Wind: WSW 13 mph , 20 km/h
Temperature: 12°C
Dew Point: 10°C
Humidity: 88%
Barometer: 1014 hPa
Summary: Nearby Showers
Clouds: Mostly Cloudy
Visibility: 6 miles , 10 km
Cloud details: Partly Cloudy 366 m
Mostly Cloudy 671 m
2017/11/20 14:50 EGHI 201450Z 24011KT 220V290 9999 VCSH SCT012 BKN022 12/10 Q1014

Metar display script from Saratoga-Weather.org